Time;durP1;ratioP1;P1;durP2;ratioP2;P2;SDS_P1;SDS_P2;PMS_P1;PMS_P2;Temp;Humidity;BMP_temperature;BMP_pressure;BME280_temperature;BME280_humidity;BME280_pressure;Samples;Min_cycle;Max_cycle;Signal;HPM_P1;HPM_P2
2023/04/16 00:01:48;;;;;;;1.92;1.50;;;;;;;11.70;nan;-24143.69;4976103;28;20637;-68
2023/04/16 00:04:13;;;;;;;4.70;1.48;;;;;;;11.73;nan;-24144.69;4976430;28;20204;-68
2023/04/16 00:06:39;;;;;;;2.45;1.70;;;;;;;11.73;nan;-24144.56;4976746;28;20649;-68
2023/04/16 00:09:04;;;;;;;3.47;1.50;;;;;;;11.69;nan;-24143.56;4976530;28;20166;-68
2023/04/16 00:11:30;;;;;;;3.63;1.70;;;;;;;11.93;nan;-24150.31;4976261;28;20169;-68
2023/04/16 00:13:55;;;;;;;2.47;1.70;;;;;;;11.89;nan;-24149.06;4976502;28;20200;-66
2023/04/16 00:16:21;;;;;;;1.70;1.60;;;;;;;11.76;nan;-24145.41;4976080;28;20173;-68
2023/04/16 00:18:46;;;;;;;2.75;1.67;;;;;;;11.86;nan;-24148.22;4976674;28;20268;-67
2023/04/16 00:21:11;;;;;;;1.90;1.48;;;;;;;11.56;nan;-24139.75;4976341;28;20248;-68
2023/04/16 00:23:37;;;;;;;2.22;1.48;;;;;;;11.60;nan;-24141.03;4976029;28;20177;-67
2023/04/16 00:26:02;;;;;;;2.85;1.52;;;;;;;11.57;nan;-24140.19;4975875;28;20645;-67
2023/04/16 00:28:28;;;;;;;2.28;1.70;;;;;;;11.50;nan;-24138.34;4975818;28;20178;-66
2023/04/16 00:30:54;;;;;;;3.38;1.70;;;;;;;11.85;nan;-24147.94;4975823;28;20173;-67
2023/04/16 00:33:20;;;;;;;2.55;1.65;;;;;;;11.57;nan;-24140.03;4976120;28;20169;-70
2023/04/16 00:35:46;;;;;;;2.83;1.88;;;;;;;11.67;nan;-24143.00;4976016;28;20213;-70
2023/04/16 00:38:12;;;;;;;4.38;1.83;;;;;;;11.65;nan;-24142.28;4975928;28;20629;-67
2023/04/16 00:40:38;;;;;;;1.70;1.50;;;;;;;11.60;nan;-24141.03;4975964;28;20177;-71
2023/04/16 00:43:03;;;;;;;5.57;2.15;;;;;;;11.59;nan;-24140.75;4975812;28;20205;-71
2023/04/16 00:45:29;;;;;;;2.15;1.85;;;;;;;11.59;nan;-24140.59;4976002;28;20173;-70
2023/04/16 00:47:55;;;;;;;2.28;1.60;;;;;;;11.53;nan;-24139.06;4980526;28;20221;-71
2023/04/16 00:50:21;;;;;;;2.10;1.90;;;;;;;11.31;nan;-24133.00;4975721;28;20236;-68
2023/04/16 00:52:47;;;;;;;3.15;1.80;;;;;;;11.31;nan;-24133.00;4975533;28;20632;-68
2023/04/16 00:55:14;;;;;;;1.70;1.60;;;;;;;10.96;nan;-24123.25;4975599;28;20205;-67
2023/04/16 00:57:39;;;;;;;3.08;2.20;;;;;;;10.97;nan;-24123.41;4974545;28;20201;-67
2023/04/16 01:00:05;;;;;;;2.67;2.00;;;;;;;11.05;nan;-24125.66;4975332;28;20263;-66
2023/04/16 01:02:32;;;;;;;5.55;2.10;;;;;;;10.45;nan;-24109.03;4975713;28;20176;-69
2023/04/16 01:04:59;;;;;;;3.17;1.90;;;;;;;11.37;nan;-24134.69;4975482;28;20165;-68
2023/04/16 01:07:25;;;;;;;2.35;2.03;;;;;;;11.15;nan;-24128.47;4975474;28;20628;-69
2023/04/16 01:09:50;;;;;;;6.97;2.40;;;;;;;10.84;nan;-24119.75;4975614;28;20185;-67
2023/04/16 01:12:15;;;;;;;3.05;1.95;;;;;;;10.78;nan;-24118.19;4975076;28;20174;-67
2023/04/16 01:14:41;;;;;;;2.28;1.85;;;;;;;10.80;nan;-24118.63;4975369;28;20352;-68
2023/04/16 01:17:06;;;;;;;4.55;2.08;;;;;;;10.96;nan;-24123.13;4975332;28;20176;-66
2023/04/16 01:19:35;;;;;;;2.13;1.80;;;;;;;11.17;nan;-24128.91;4975173;28;20256;-65
2023/04/16 01:22:00;;;;;;;3.38;2.03;;;;;;;10.96;nan;-24123.13;4975051;28;20524;-67
2023/04/16 01:24:26;;;;;;;2.92;1.77;;;;;;;10.68;nan;-24115.38;4973657;28;20220;-67
2023/04/16 01:26:51;;;;;;;3.05;1.95;;;;;;;10.92;nan;-24122.13;4974853;28;20162;-67
2023/04/16 01:29:17;;;;;;;3.53;1.88;;;;;;;10.92;nan;-24122.13;4974854;28;20166;-65
2023/04/16 01:31:42;;;;;;;3.20;2.35;;;;;;;10.82;nan;-24119.19;4974793;28;20176;-69
2023/04/16 01:34:08;;;;;;;2.75;2.20;;;;;;;10.94;nan;-24122.56;4974729;28;20586;-68
2023/04/16 01:36:33;;;;;;;2.50;2.15;;;;;;;10.75;nan;-24117.34;4973989;28;20205;-69
2023/04/16 01:38:58;;;;;;;5.85;2.63;;;;;;;10.84;nan;-24119.88;4974728;28;20220;-68
2023/04/16 01:41:24;;;;;;;3.75;1.83;;;;;;;10.69;nan;-24115.66;4974622;28;20670;-68
2023/04/16 01:43:49;;;;;;;3.53;2.17;;;;;;;10.66;nan;-24114.66;4974556;28;20197;-67
2023/04/16 01:46:22;;;;;;;3.95;1.98;;;;;;;10.58;nan;-24112.69;4977090;28;20289;-66
2023/04/16 01:48:48;;;;;;;2.13;1.60;;;;;;;10.19;nan;-24101.81;4977171;28;20217;-69
2023/04/16 01:51:13;;;;;;;1.85;1.60;;;;;;;10.50;nan;-24110.44;4974543;28;20475;-68
2023/04/16 01:53:39;;;;;;;1.88;1.70;;;;;;;10.60;nan;-24113.13;4974489;28;20577;-67
2023/04/16 01:56:05;;;;;;;2.00;1.80;;;;;;;10.55;nan;-24111.69;4974246;28;20173;-65
2023/04/16 01:58:31;;;;;;;3.83;1.95;;;;;;;10.50;nan;-24110.28;4973004;28;20378;-67
2023/04/16 02:00:57;;;;;;;4.35;2.40;;;;;;;10.25;nan;-24103.22;4974175;28;20177;-68
2023/04/16 02:03:23;;;;;;;6.15;2.30;;;;;;;10.07;nan;-24098.28;4974398;28;20157;-69
2023/04/16 02:05:50;;;;;;;2.85;2.40;;;;;;;10.37;nan;-24106.63;4974122;28;20642;-69
2023/04/16 02:08:15;;;;;;;2.93;2.23;;;;;;;10.30;nan;-24104.78;4974240;28;20186;-67
2023/04/16 02:10:41;;;;;;;2.60;2.10;;;;;;;10.00;nan;-24096.31;4974437;28;20642;-69
2023/04/16 02:13:06;;;;;;;4.33;2.50;;;;;;;9.84;nan;-24091.94;4974514;28;20172;-66
2023/04/16 02:15:31;;;;;;;2.28;2.08;;;;;;;9.82;nan;-24091.38;4973763;28;20240;-68
2023/04/16 02:17:57;;;;;;;5.17;2.67;;;;;;;9.70;nan;-24087.97;4974414;28;20180;-66
2023/04/16 02:20:22;;;;;;;4.07;2.20;;;;;;;9.98;nan;-24095.75;4973844;28;20556;-67
2023/04/16 02:22:47;;;;;;;3.47;2.40;;;;;;;10.00;nan;-24096.31;4974078;28;20200;-68
2023/04/16 02:25:13;;;;;;;5.30;2.50;;;;;;;9.84;nan;-24091.78;4973519;28;20251;-67
2023/04/16 02:27:38;;;;;;;5.50;2.20;;;;;;;9.69;nan;-24087.84;4972792;28;20260;-68
2023/04/16 02:30:05;;;;;;;3.33;2.20;;;;;;;9.62;nan;-24085.72;4973568;28;20168;-67
2023/04/16 02:32:30;;;;;;;2.97;2.33;;;;;;;9.85;nan;-24092.06;4973445;28;20247;-67
2023/04/16 02:34:56;;;;;;;2.97;2.33;;;;;;;9.89;nan;-24093.34;4973154;28;20695;-65
2023/04/16 02:37:22;;;;;;;3.97;2.37;;;;;;;9.62;nan;-24085.84;4973699;28;20178;-67
2023/04/16 02:39:48;;;;;;;4.27;2.80;;;;;;;9.82;nan;-24091.22;4972909;28;20203;-66
2023/04/16 02:42:15;;;;;;;4.97;2.47;;;;;;;9.49;nan;-24082.19;4971856;28;20567;-66
2023/04/16 02:44:41;;;;;;;2.10;1.90;;;;;;;9.79;nan;-24090.38;4973193;28;20169;-67
2023/04/16 02:47:06;;;;;;;6.60;2.47;;;;;;;9.46;nan;-24081.19;4975845;28;20221;-66
2023/04/16 02:49:32;;;;;;;4.20;2.40;;;;;;;9.35;nan;-24078.22;4975175;28;20181;-69
2023/04/16 02:51:57;;;;;;;2.20;2.00;;;;;;;9.55;nan;-24083.75;4972245;28;20236;-66
2023/04/16 02:54:23;;;;;;;2.17;2.00;;;;;;;9.38;nan;-24079.06;4972174;28;20220;-68
2023/04/16 02:56:49;;;;;;;4.07;2.47;;;;;;;9.22;nan;-24074.56;4972929;28;20591;-67
2023/04/16 02:59:14;;;;;;;3.43;2.50;;;;;;;9.46;nan;-24081.34;4973270;28;20180;-67
2023/04/16 03:01:40;;;;;;;2.90;2.20;;;;;;;9.45;nan;-24081.06;4975336;28;20575;-67
2023/04/16 03:04:05;;;;;;;3.07;2.23;;;;;;;9.40;nan;-24079.63;4981987;28;20219;-67
2023/04/16 03:06:31;;;;;;;4.50;2.57;;;;;;;9.01;nan;-24068.63;4976177;28;20232;-68
2023/04/16 03:08:56;;;;;;;2.60;2.20;;;;;;;8.97;nan;-24067.47;4991848;28;20240;-68
2023/04/16 03:11:22;;;;;;;5.60;2.33;;;;;;;8.98;nan;-24067.75;4992397;28;20184;-67
2023/04/16 03:13:48;;;;;;;4.57;2.63;;;;;;;9.20;nan;-24074.13;4992553;28;20283;-66
2023/04/16 03:16:13;;;;;;;3.83;2.40;;;;;;;9.14;nan;-24072.44;4992704;28;20749;-66
2023/04/16 03:18:38;;;;;;;3.33;2.53;;;;;;;9.22;nan;-24074.69;4992306;28;20187;-68
2023/04/16 03:21:04;;;;;;;3.57;2.43;;;;;;;9.29;nan;-24076.66;4998684;28;20204;-67
2023/04/16 03:23:29;;;;;;;2.57;2.00;;;;;;;9.05;nan;-24069.75;4999312;28;20179;-68
2023/04/16 03:25:55;;;;;;;3.10;2.07;;;;;;;9.22;nan;-24074.56;4998956;28;20629;-67
2023/04/16 03:28:20;;;;;;;4.30;2.70;;;;;;;8.88;nan;-24065.22;4999241;28;20181;-68
2023/04/16 03:30:51;;;;;;;2.70;2.40;;;;;;;9.19;nan;-24073.84;4998685;28;20216;-68
2023/04/16 03:33:17;;;;;;;8.57;2.87;;;;;;;8.98;nan;-24067.91;4998676;28;20558;-67
2023/04/16 03:35:42;;;;;;;3.67;2.37;;;;;;;8.98;nan;-24067.75;4998780;28;20181;-68
2023/04/16 03:38:07;;;;;;;8.97;3.00;;;;;;;9.00;nan;-24068.34;4998824;28;20242;-68
2023/04/16 03:40:33;;;;;;;5.10;2.80;;;;;;;8.88;nan;-24064.94;4998761;28;20189;-67
2023/04/16 03:42:58;;;;;;;7.50;2.97;;;;;;;8.95;nan;-24066.91;4999166;28;20181;-68
2023/04/16 03:45:23;;;;;;;5.93;3.37;;;;;;;9.32;nan;-24077.38;4998832;28;20602;-66
2023/04/16 03:47:51;;;;;;;3.90;2.57;;;;;;;9.29;nan;-24076.53;5003718;28;20231;-70
2023/04/16 03:50:18;;;;;;;5.23;3.43;;;;;;;9.04;nan;-24069.47;4998875;28;20177;-67
2023/04/16 03:52:43;;;;;;;5.77;3.30;;;;;;;9.27;nan;-24075.97;4998624;28;20272;-68
2023/04/16 03:55:09;;;;;;;5.07;2.93;;;;;;;9.44;nan;-24080.63;4998654;28;20204;-66
2023/04/16 03:57:34;;;;;;;4.37;3.20;;;;;;;9.10;nan;-24071.31;4998668;28;20223;-69
2023/04/16 04:00:00;;;;;;;4.20;2.60;;;;;;;8.99;nan;-24068.03;4998831;28;20227;-67
2023/04/16 04:02:25;;;;;;;8.77;3.50;;;;;;;9.42;nan;-24080.06;4998506;28;20616;-66
2023/04/16 04:04:51;;;;;;;4.30;2.93;;;;;;;9.45;nan;-24080.91;4998232;28;20173;-66
2023/04/16 04:07:16;;;;;;;5.67;3.60;;;;;;;9.52;nan;-24083.03;4998591;28;20667;-67
2023/04/16 04:09:42;;;;;;;6.60;4.07;;;;;;;9.59;nan;-24085.00;4998889;28;20176;-66
2023/04/16 04:12:08;;;;;;;5.60;3.37;;;;;;;9.51;nan;-24082.59;4998835;28;20196;-66
2023/04/16 04:14:38;;;;;;;9.00;3.73;;;;;;;9.90;nan;-24093.47;4998536;28;20201;-66
2023/04/16 04:17:04;;;;;;;6.33;3.77;;;;;;;9.97;nan;-24095.47;4998663;28;20666;-66
2023/04/16 04:19:29;;;;;;;8.10;4.10;;;;;;;10.00;nan;-24096.31;4998700;28;20157;-68
2023/04/16 04:21:55;;;;;;;7.50;3.63;;;;;;;10.16;nan;-24100.97;4997072;28;20276;-67
2023/04/16 04:24:20;;;;;;;7.43;3.33;;;;;;;9.97;nan;-24095.47;4998822;28;20534;-67
2023/04/16 04:26:46;;;;;;;6.65;4.20;;;;;;;10.24;nan;-24103.09;4998619;28;20256;-67
2023/04/16 04:29:12;;;;;;;7.90;3.58;;;;;;;9.84;nan;-24091.78;4998640;28;20169;-66
2023/04/16 04:31:37;;;;;;;8.80;4.03;;;;;;;10.22;nan;-24102.53;4995677;28;20699;-65
2023/04/16 04:34:03;;;;;;;6.75;4.13;;;;;;;10.34;nan;-24105.91;4995468;28;20316;-66
2023/04/16 04:36:28;;;;;;;6.25;4.00;;;;;;;10.39;nan;-24107.19;4995179;28;20165;-67
2023/04/16 04:38:54;;;;;;;7.57;4.18;;;;;;;10.35;nan;-24106.06;4995857;28;20165;-67
2023/04/16 04:41:20;;;;;;;6.33;4.00;;;;;;;10.29;nan;-24104.50;4995575;28;20201;-66
2023/04/16 04:43:45;;;;;;;10.98;4.88;;;;;;;10.34;nan;-24105.78;4995335;28;20177;-66
2023/04/16 04:46:11;;;;;;;5.63;3.70;;;;;;;10.64;nan;-24114.25;4995247;28;20177;-67
2023/04/16 04:48:36;;;;;;;6.68;3.60;;;;;;;10.39;nan;-24107.31;4999200;28;20226;-67
2023/04/16 04:51:03;;;;;;;5.22;3.33;;;;;;;10.72;nan;-24116.34;4993628;28;20574;-68
2023/04/16 04:53:28;;;;;;;8.02;3.65;;;;;;;10.60;nan;-24113.13;4995237;28;20598;-67
2023/04/16 04:55:54;;;;;;;5.43;3.58;;;;;;;10.41;nan;-24107.88;4994947;28;20223;-69
2023/04/16 04:58:20;;;;;;;7.55;4.00;;;;;;;10.57;nan;-24112.25;4995181;28;20168;-68
2023/04/16 05:00:45;;;;;;;7.53;4.07;;;;;;;10.61;nan;-24113.41;4995275;28;20180;-68
2023/04/16 05:03:11;;;;;;;6.32;3.78;;;;;;;10.75;nan;-24117.19;4998067;28;20173;-67
2023/04/16 05:05:38;;;;;;;8.05;3.50;;;;;;;10.65;nan;-24114.53;4996027;28;20212;-67
2023/04/16 05:08:04;;;;;;;7.35;4.38;;;;;;;10.82;nan;-24119.19;4995214;28;20232;-67
2023/04/16 05:10:29;;;;;;;7.32;4.00;;;;;;;10.96;nan;-24123.25;4995161;28;20177;-67
2023/04/16 05:12:54;;;;;;;9.20;4.38;;;;;;;10.49;nan;-24110.16;4994803;28;20267;-67
2023/04/16 05:15:20;;;;;;;6.25;3.97;;;;;;;10.80;nan;-24118.75;4993310;28;20528;-67
2023/04/16 05:17:45;;;;;;;7.00;4.03;;;;;;;10.79;nan;-24118.34;4994835;28;20251;-68
2023/04/16 05:20:11;;;;;;;6.78;3.95;;;;;;;11.05;nan;-24125.81;4994447;28;20359;-67
2023/04/16 05:22:36;;;;;;;7.72;3.90;;;;;;;11.12;nan;-24127.63;4994342;28;20164;-66
2023/04/16 05:25:02;;;;;;;6.95;4.07;;;;;;;11.25;nan;-24131.16;4994746;28;20652;-68
2023/04/16 05:27:27;;;;;;;7.80;4.20;;;;;;;11.50;nan;-24138.22;4994306;28;20259;-68
2023/04/16 05:29:53;;;;;;;6.60;4.28;;;;;;;11.45;nan;-24136.81;4994815;28;20606;-69
2023/04/16 05:32:18;;;;;;;10.77;4.38;;;;;;;11.73;nan;-24144.56;4994616;28;20227;-67
2023/04/16 05:34:44;;;;;;;8.65;4.88;;;;;;;11.87;nan;-24148.63;4994026;28;20250;-68
2023/04/16 05:37:09;;;;;;;6.75;4.63;;;;;;;12.50;nan;-24166.09;4994186;28;20188;-67
2023/04/16 05:39:35;;;;;;;7.80;4.43;;;;;;;12.58;nan;-24168.34;4994455;28;20244;-66
2023/04/16 05:42:00;;;;;;;8.60;4.28;;;;;;;12.88;nan;-24176.50;4994146;28;20200;-67
2023/04/16 05:44:26;;;;;;;8.68;4.10;;;;;;;13.37;nan;-24190.25;4992839;28;20604;-67
2023/04/16 05:46:51;;;;;;;6.95;4.50;;;;;;;13.58;nan;-24196.03;4993599;28;20216;-66
2023/04/16 05:49:20;;;;;;;6.75;4.43;;;;;;;13.81;nan;-24202.50;4997429;28;20327;-67
2023/04/16 05:51:47;;;;;;;9.40;4.28;;;;;;;14.50;nan;-24221.56;4993855;28;20247;-70
2023/04/16 05:54:12;;;;;;;6.90;4.40;;;;;;;14.56;nan;-24223.41;4993665;28;20196;-67
2023/04/16 05:56:37;;;;;;;7.32;4.40;;;;;;;15.05;nan;-24236.84;4993508;28;20187;-68
2023/04/16 05:59:03;;;;;;;8.05;3.70;;;;;;;15.19;nan;-24240.78;4993374;28;20662;-66
2023/04/16 06:01:28;;;;;;;6.55;3.90;;;;;;;15.74;nan;-24255.91;4993270;28;20180;-67
2023/04/16 06:03:53;;;;;;;6.18;3.25;;;;;;;16.25;nan;-24270.16;4992007;28;20221;-67
2023/04/16 06:06:19;;;;;;;9.00;4.07;;;;;;;16.67;nan;-24281.78;4993423;28;20184;-66
2023/04/16 06:08:44;;;;;;;5.72;3.08;;;;;;;16.42;nan;-24274.63;4993564;28;20212;-67
2023/04/16 06:11:10;;;;;;;5.43;3.40;;;;;;;16.62;nan;-24280.22;4993801;28;20177;-68
2023/04/16 06:13:36;;;;;;;5.38;1.95;;;;;;;17.12;nan;-24294.19;4993267;28;20172;-68
2023/04/16 06:16:01;;;;;;;2.58;2.05;;;;;;;17.10;nan;-24293.50;4993184;28;20260;-67
2023/04/16 06:18:27;;;;;;;4.78;2.20;;;;;;;16.16;nan;-24267.66;4993267;28;20183;-68
2023/04/16 06:20:52;;;;;;;2.80;1.98;;;;;;;16.33;nan;-24272.41;4993210;28;20668;-67
2023/04/16 06:23:18;;;;;;;3.30;2.10;;;;;;;15.89;nan;-24260.22;4993256;28;20259;-66
2023/04/16 06:25:43;;;;;;;3.65;2.10;;;;;;;15.85;nan;-24258.97;4993385;28;20179;-67
2023/04/16 06:28:08;;;;;;;4.32;2.35;;;;;;;16.02;nan;-24263.59;4993334;28;20171;-69
2023/04/16 06:30:34;;;;;;;3.17;2.15;;;;;;;15.68;nan;-24254.22;4992910;28;20710;-69
2023/04/16 06:33:00;;;;;;;3.45;2.17;;;;;;;14.82;nan;-24230.41;4993156;28;20168;-69
2023/04/16 06:35:25;;;;;;;2.40;1.90;;;;;;;14.89;nan;-24232.50;4992959;28;20247;-68
2023/04/16 06:37:51;;;;;;;5.72;2.33;;;;;;;14.40;nan;-24218.91;4993164;28;20161;-68
2023/04/16 06:40:16;;;;;;;3.92;2.20;;;;;;;13.89;nan;-24204.59;4993415;28;20184;-68
2023/04/16 06:42:42;;;;;;;3.72;2.03;;;;;;;14.31;nan;-24216.38;4993438;28;20168;-67
2023/04/16 06:45:07;;;;;;;3.78;2.10;;;;;;;14.82;nan;-24230.53;4993308;28;20169;-67
2023/04/16 06:47:33;;;;;;;3.05;1.85;;;;;;;14.96;nan;-24234.47;4997936;28;20274;-67
2023/04/16 06:49:58;;;;;;;2.58;1.70;;;;;;;14.19;nan;-24212.88;4993062;28;20173;-69
2023/04/16 06:52:24;;;;;;;2.90;1.88;;;;;;;14.44;nan;-24219.88;4992951;28;20516;-68
2023/04/16 06:54:49;;;;;;;2.90;1.90;;;;;;;14.25;nan;-24214.56;4992211;28;20197;-68
2023/04/16 06:57:15;;;;;;;3.28;2.00;;;;;;;14.73;nan;-24228.03;4993247;28;20181;-69
2023/04/16 06:59:40;;;;;;;2.53;1.85;;;;;;;14.76;nan;-24228.72;4992866;28;20173;-68
2023/04/16 07:02:08;;;;;;;5.18;2.40;;;;;;;14.36;nan;-24217.66;4992851;28;20171;-66
2023/04/16 07:04:34;;;;;;;4.03;2.20;;;;;;;14.69;nan;-24226.91;4992274;28;20219;-68
2023/04/16 07:07:00;;;;;;;2.97;1.92;;;;;;;14.64;nan;-24225.50;4992664;28;20640;-67
2023/04/16 07:09:26;;;;;;;2.00;1.75;;;;;;;14.53;nan;-24222.56;4992579;28;20227;-66
2023/04/16 07:11:52;;;;;;;5.63;2.35;;;;;;;13.73;nan;-24200.38;4992838;28;20218;-68
2023/04/16 07:14:17;;;;;;;3.85;2.10;;;;;;;14.55;nan;-24222.97;4992447;28;20201;-67
2023/04/16 07:16:43;;;;;;;3.97;2.00;;;;;;;14.86;nan;-24231.66;4993033;28;20264;-67
2023/04/16 07:19:08;;;;;;;3.38;1.60;;;;;;;14.82;nan;-24230.53;4992156;28;20208;-68
2023/04/16 07:21:34;;;;;;;3.05;2.25;;;;;;;14.64;nan;-24225.50;4992621;28;20180;-70
2023/04/16 07:23:59;;;;;;;2.28;2.08;;;;;;;14.75;nan;-24228.44;4992644;28;20173;-67
2023/04/16 07:26:25;;;;;;;4.00;2.67;;;;;;;14.79;nan;-24229.69;4992504;28;20176;-67
2023/04/16 07:28:50;;;;;;;7.93;2.70;;;;;;;14.81;nan;-24230.13;4992810;28;20180;-69
2023/04/16 07:31:16;;;;;;;4.03;2.00;;;;;;;14.44;nan;-24219.88;4991528;28;20667;-66
2023/04/16 07:33:41;;;;;;;3.65;2.25;;;;;;;14.46;nan;-24220.59;4992307;28;20169;-67
2023/04/16 07:36:07;;;;;;;5.35;2.15;;;;;;;14.49;nan;-24221.28;4992713;28;20176;-68
2023/04/16 07:38:33;;;;;;;3.25;2.22;;;;;;;14.82;nan;-24230.53;4992643;28;20169;-66
2023/04/16 07:40:59;;;;;;;4.28;2.70;;;;;;;14.39;nan;-24218.47;4992414;28;20168;-68
2023/04/16 07:43:25;;;;;;;3.65;2.50;;;;;;;15.13;nan;-24238.94;4992293;28;20703;-67
2023/04/16 07:45:50;;;;;;;5.40;2.47;;;;;;;14.64;nan;-24225.34;4996926;28;20189;-68
2023/04/16 07:48:16;;;;;;;3.92;2.50;;;;;;;14.96;nan;-24234.31;4992515;28;20312;-68
2023/04/16 07:50:45;;;;;;;5.05;2.30;;;;;;;14.22;nan;-24213.84;4992305;28;20181;-66
2023/04/16 07:53:10;;;;;;;2.35;1.90;;;;;;;14.76;nan;-24228.72;5003648;28;20267;-66
2023/04/16 07:55:36;;;;;;;2.60;1.88;;;;;;;15.22;nan;-24241.59;4997081;28;20630;-68
2023/04/16 07:58:01;;;;;;;3.25;2.10;;;;;;;15.43;nan;-24247.50;4992491;28;20678;-68
2023/04/16 08:00:28;;;;;;;2.15;1.85;;;;;;;15.52;nan;-24249.75;4991062;28;20173;-66
2023/04/16 08:02:53;;;;;;;6.20;2.50;;;;;;;16.08;nan;-24265.41;4992014;28;20177;-67
2023/04/16 08:05:18;;;;;;;1.98;1.77;;;;;;;16.57;nan;-24278.97;4992595;28;20165;-67
2023/04/16 08:07:44;;;;;;;5.03;2.53;;;;;;;16.49;nan;-24276.72;4995279;28;20709;-66
2023/04/16 08:10:10;;;;;;;2.20;2.00;;;;;;;16.14;nan;-24266.94;4995207;28;20173;-69
2023/04/16 08:12:35;;;;;;;2.88;2.13;;;;;;;16.54;nan;-24278.13;4995816;28;20298;-67
2023/04/16 08:15:00;;;;;;;4.13;1.75;;;;;;;16.43;nan;-24275.06;4995582;28;20646;-68
2023/04/16 08:17:27;;;;;;;6.28;2.22;;;;;;;16.00;nan;-24263.16;4995434;28;20252;-68
2023/04/16 08:19:53;;;;;;;3.72;2.05;;;;;;;16.06;nan;-24264.72;4995802;28;20613;-68
2023/04/16 08:22:18;;;;;;;2.53;1.98;;;;;;;15.65;nan;-24253.38;4995428;28;20173;-70
2023/04/16 08:24:44;;;;;;;4.38;1.92;;;;;;;15.93;nan;-24261.22;4995696;28;20173;-68
2023/04/16 08:27:10;;;;;;;2.17;1.75;;;;;;;16.30;nan;-24271.56;4995437;28;20707;-66
2023/04/16 08:29:36;;;;;;;2.83;1.73;;;;;;;17.05;nan;-24292.09;4995620;28;20180;-68
2023/04/16 08:32:01;;;;;;;5.50;2.10;;;;;;;17.75;nan;-24311.50;4995320;28;20632;-68
2023/04/16 08:34:27;;;;;;;5.68;1.85;;;;;;;17.88;nan;-24315.13;4995120;28;20695;-69
2023/04/16 08:36:52;;;;;;;3.17;1.83;;;;;;;18.71;nan;-24338.00;4995292;28;20266;-68
2023/04/16 08:39:18;;;;;;;6.82;1.80;;;;;;;18.97;nan;-24345.22;4995232;28;20189;-65
2023/04/16 08:41:45;;;;;;;3.60;1.92;;;;;;;18.14;nan;-24322.25;4995153;28;20173;-67
2023/04/16 08:44:41;;;;;;;2.00;1.80;;;;;;;18.27;nan;-24325.88;4996570;28;20172;-66
2023/04/16 08:47:08;;;;;;;2.60;1.73;;;;;;;17.39;nan;-24301.44;4996018;28;20220;-68
2023/04/16 08:49:35;;;;;;;3.60;2.20;;;;;;;17.34;nan;-24300.06;4995111;28;20181;-68
2023/04/16 08:52:04;;;;;;;3.15;1.95;;;;;;;17.51;nan;-24304.94;4994906;28;20274;-66
2023/04/16 08:54:45;;;;;;;5.75;2.45;;;;;;;17.78;nan;-24312.19;4994633;28;20340;-69
2023/04/16 08:57:15;;;;;;;3.80;2.70;;;;;;;17.14;nan;-24294.75;4994922;28;20176;-67
2023/04/16 08:59:45;;;;;;;3.88;2.05;;;;;;;17.16;nan;-24295.16;4995273;28;20172;-69
2023/04/16 09:02:11;;;;;;;11.48;2.30;;;;;;;17.04;nan;-24291.81;4994818;28;20176;-67
2023/04/16 09:04:38;;;;;;;3.70;1.92;;;;;;;17.08;nan;-24293.09;4994613;28;20184;-66
2023/04/16 09:07:05;;;;;;;3.25;1.92;;;;;;;17.23;nan;-24297.28;4994543;28;20650;-68
2023/04/16 09:09:32;;;;;;;10.32;2.33;;;;;;;17.89;nan;-24315.28;4994752;28;20675;-67
2023/04/16 09:11:57;;;;;;;2.00;1.70;;;;;;;18.16;nan;-24322.81;4994472;28;20181;-68
2023/04/16 09:14:22;;;;;;;2.60;1.73;;;;;;;18.38;nan;-24328.94;4994208;28;20200;-69
2023/04/16 09:16:50;;;;;;;6.35;2.15;;;;;;;18.16;nan;-24322.66;4994271;28;20256;-69
2023/04/16 09:19:15;;;;;;;5.85;1.90;;;;;;;18.08;nan;-24320.56;4994184;28;20176;-69
2023/04/16 09:21:44;;;;;;;3.47;2.03;;;;;;;17.88;nan;-24315.00;4994380;28;20667;-68
2023/04/16 09:24:10;;;;;;;2.40;1.90;;;;;;;18.03;nan;-24319.31;4994114;28;20204;-68
2023/04/16 09:26:35;;;;;;;2.20;1.88;;;;;;;18.51;nan;-24332.41;4994362;28;20185;-68
2023/04/16 09:29:01;;;;;;;3.50;1.45;;;;;;;18.17;nan;-24323.06;4994786;28;20616;-69
2023/04/16 09:31:27;;;;;;;3.20;1.73;;;;;;;18.07;nan;-24320.28;4994497;28;20181;-70
2023/04/16 09:34:06;;;;;;;2.33;1.73;;;;;;;18.16;nan;-24322.66;4994385;28;20578;-69
2023/04/16 09:36:33;;;;;;;4.28;2.00;;;;;;;18.13;nan;-24321.97;4992868;28;20182;-68
2023/04/16 09:38:59;;;;;;;4.97;1.80;;;;;;;18.10;nan;-24321.25;4994392;28;20648;-70
2023/04/16 09:41:29;;;;;;;2.10;1.70;;;;;;;17.75;nan;-24311.38;4994229;28;20181;-69
2023/04/16 09:44:03;;;;;;;3.42;1.80;;;;;;;17.82;nan;-24313.31;4997102;28;20636;-66
2023/04/16 09:46:40;;;;;;;1.67;1.40;;;;;;;18.25;nan;-24325.31;4995562;28;20169;-68
2023/04/16 09:49:17;;;;;;;2.10;1.83;;;;;;;18.40;nan;-24329.34;4993987;28;20176;-70
2023/04/16 09:51:47;;;;;;;2.67;1.80;;;;;;;19.29;nan;-24354.00;4994048;28;20169;-71
2023/04/16 09:54:12;;;;;;;2.20;1.63;;;;;;;19.12;nan;-24349.25;4993823;28;20192;-69
2023/04/16 09:56:41;;;;;;;2.17;1.67;;;;;;;19.25;nan;-24352.75;4994007;28;20228;-69
2023/04/16 09:59:07;;;;;;;2.78;1.83;;;;;;;18.88;nan;-24342.72;4993971;28;20206;-69
2023/04/16 10:01:33;;;;;;;2.42;1.60;;;;;;;18.31;nan;-24326.84;4993765;28;20574;-70
2023/04/16 10:03:58;;;;;;;2.30;1.77;;;;;;;18.20;nan;-24323.91;4993956;28;20261;-67
2023/04/16 10:06:26;;;;;;;5.68;2.38;;;;;;;18.03;nan;-24319.19;4993856;28;20687;-68
2023/04/16 10:08:56;;;;;;;2.22;1.65;;;;;;;17.90;nan;-24315.53;4992312;28;20165;-66
2023/04/16 10:11:22;;;;;;;3.22;1.70;;;;;;;18.33;nan;-24327.41;4992135;28;20173;-68
2023/04/16 10:13:48;;;;;;;4.00;1.60;;;;;;;18.45;nan;-24330.75;4993181;28;20172;-67
2023/04/16 10:16:14;;;;;;;2.92;1.75;;;;;;;18.50;nan;-24332.28;4993184;28;20173;-68
2023/04/16 10:18:45;;;;;;;2.85;1.88;;;;;;;18.79;nan;-24340.22;4993664;28;20288;-69
2023/04/16 10:21:11;;;;;;;2.22;1.55;;;;;;;18.80;nan;-24340.50;4993539;28;20193;-66
2023/04/16 10:23:41;;;;;;;2.47;1.65;;;;;;;19.08;nan;-24348.16;4993097;28;20185;-69
2023/04/16 10:26:07;;;;;;;2.08;1.50;;;;;;;18.69;nan;-24337.28;4993289;28;20640;-68
2023/04/16 10:28:34;;;;;;;2.50;1.60;;;;;;;18.98;nan;-24345.38;4992944;28;20172;-68
2023/04/16 10:31:02;;;;;;;1.73;1.33;;;;;;;19.28;nan;-24353.72;4992550;28;20544;-67
2023/04/16 10:33:30;;;;;;;2.70;1.70;;;;;;;18.54;nan;-24333.38;4993143;28;20173;-70
2023/04/16 10:36:16;;;;;;;2.00;1.70;;;;;;;18.91;nan;-24343.56;4992752;28;20240;-69
2023/04/16 10:38:51;;;;;;;5.00;1.70;;;;;;;19.11;nan;-24348.97;4993253;28;20201;-68
2023/04/16 10:41:19;;;;;;;3.65;1.83;;;;;;;19.20;nan;-24351.47;4992984;28;20165;-70
2023/04/16 10:43:46;;;;;;;2.70;1.77;;;;;;;19.37;nan;-24356.06;4995629;28;20260;-66
2023/04/16 10:46:19;;;;;;;2.70;1.90;;;;;;;18.95;nan;-24344.53;4993552;28;20184;-66
2023/04/16 10:48:51;;;;;;;4.05;1.90;;;;;;;19.34;nan;-24355.25;4994592;28;20224;-67
2023/04/16 10:51:25;;;;;;;2.17;1.55;;;;;;;19.49;nan;-24359.28;4992958;28;20679;-67
2023/04/16 10:53:50;;;;;;;2.40;1.60;;;;;;;19.37;nan;-24356.06;4992626;28;20173;-69
2023/04/16 10:56:22;;;;;;;2.33;1.70;;;;;;;19.35;nan;-24355.66;4991536;28;20176;-69
2023/04/16 10:58:48;;;;;;;3.10;1.58;;;;;;;19.39;nan;-24356.78;4993014;28;20188;-66
2023/04/16 11:01:15;;;;;;;2.55;1.80;;;;;;;19.67;nan;-24364.28;4992912;28;20656;-67
2023/04/16 11:03:50;;;;;;;2.67;1.80;;;;;;;19.68;nan;-24364.56;4992538;28;20200;-69
2023/04/16 11:06:23;;;;;;;3.58;1.88;;;;;;;19.91;nan;-24370.97;4992244;28;20619;-68
2023/04/16 11:08:50;;;;;;;2.35;1.88;;;;;;;20.06;nan;-24375.00;4992920;28;20173;-68
2023/04/16 11:11:17;;;;;;;2.72;1.73;;;;;;;20.59;nan;-24389.56;4992373;28;20172;-69
2023/04/16 11:13:44;;;;;;;5.57;2.22;;;;;;;20.16;nan;-24377.75;4992872;28;20180;-68
2023/04/16 11:16:13;;;;;;;3.33;2.13;;;;;;;19.57;nan;-24361.50;4992867;28;20225;-68
2023/04/16 11:18:40;;;;;;;1.98;1.75;;;;;;;19.67;nan;-24364.44;4992408;28;20181;-68
2023/04/16 11:21:11;;;;;;;2.10;1.65;;;;;;;19.70;nan;-24365.25;4992807;28;20173;-70
2023/04/16 11:23:50;;;;;;;2.75;1.75;;;;;;;19.79;nan;-24367.63;4992560;28;20183;-68
2023/04/16 11:26:20;;;;;;;2.75;1.80;;;;;;;19.79;nan;-24367.63;4992715;28;20204;-69
2023/04/16 11:28:45;;;;;;;5.57;1.70;;;;;;;19.17;nan;-24350.66;4992382;28;20183;-70
2023/04/16 11:31:11;;;;;;;2.70;1.55;;;;;;;19.10;nan;-24348.56;4992347;28;20177;-68
2023/04/16 11:33:37;;;;;;;2.28;1.70;;;;;;;18.95;nan;-24344.53;4992825;28;20256;-70
2023/04/16 11:36:04;;;;;;;4.13;2.15;;;;;;;19.34;nan;-24355.38;4992966;28;20161;-68
2023/04/16 11:38:35;;;;;;;2.58;1.88;;;;;;;19.34;nan;-24355.25;4992397;28;20184;-68
2023/04/16 11:41:01;;;;;;;2.70;1.73;;;;;;;19.31;nan;-24354.41;4993747;28;20640;-68